Time;durP1;ratioP1;P1;durP2;ratioP2;P2;SDS_P1;SDS_P2;PMS_P1;PMS_P2;Temp;Humidity;BMP_temperature;BMP_pressure;BME280_temperature;BME280_humidity;BME280_pressure;Samples;Min_cycle;Max_cycle;Signal;HPM_P1;HPM_P2
2021/11/21 00:02:20;;;;;;;10.7;7;;;;;;;;;;;;;
2021/11/21 00:04:45;;;;;;;11.5;7.5;;;;;;;;;;;;;
2021/11/21 00:07:15;;;;;;;10.5;7;;;;;;;;;;;;;
2021/11/21 00:09:42;;;;;;;10.9;7.1;;;;;;;;;;;;;
2021/11/21 00:12:07;;;;;;;11.1;6.4;;;;;;;;;;;;;
2021/11/21 00:14:32;;;;;;;11.1;7.1;;;;;;;;;;;;;
2021/11/21 00:17:01;;;;;;;13.4;6.7;;;;;;;;;;;;;
2021/11/21 00:19:22;;;;;;;12.2;7.3;;;;;;;;;;;;;
2021/11/21 00:21:47;;;;;;;15.7;7.9;;;;;;;;;;;;;
2021/11/21 00:24:13;;;;;;;20.1;8.6;;;;;;;;;;;;;
2021/11/21 00:26:38;;;;;;;17.3;7.7;;;;;;;;;;;;;
2021/11/21 00:29:03;;;;;;;12.5;5.9;;;;;;;;;;;;;
2021/11/21 00:32:10;;;;;;;11.8;5.6;;;;;;;;;;;;;
2021/11/21 00:34:20;;;;;;;9.3;5.3;;;;;;;;;;;;;
2021/11/21 00:36:45;;;;;;;7.3;4.9;;;;;;;;;;;;;
2021/11/21 00:39:10;;;;;;;5.8;4.2;;;;;;;;;;;;;
2021/11/21 00:41:36;;;;;;;8.7;5.4;;;;;;;;;;;;;
2021/11/21 00:44:01;;;;;;;8.4;5.2;;;;;;;;;;;;;
2021/11/21 00:46:27;;;;;;;7.4;5;;;;;;;;;;;;;
2021/11/21 00:48:53;;;;;;;8.1;5;;;;;;;;;;;;;
2021/11/21 00:51:19;;;;;;;9.2;5.3;;;;;;;;;;;;;
2021/11/21 00:53:44;;;;;;;9.1;5.2;;;;;;;;;;;;;
2021/11/21 00:56:10;;;;;;;8.5;5.5;;;;;;;;;;;;;
2021/11/21 00:58:35;;;;;;;10.1;5.5;;;;;;;;;;;;;
2021/11/21 01:01:01;;;;;;;7.9;4.9;;;;;;;;;;;;;
2021/11/21 01:03:26;;;;;;;8.4;4.9;;;;;;;;;;;;;
2021/11/21 01:05:51;;;;;;;7.8;5;;;;;;;;;;;;;
2021/11/21 01:08:17;;;;;;;7.2;4.7;;;;;;;;;;;;;
2021/11/21 01:10:43;;;;;;;7.8;5.2;;;;;;;;;;;;;
2021/11/21 01:13:08;;;;;;;8.5;4.8;;;;;;;;;;;;;
2021/11/21 01:15:37;;;;;;;7.4;4.7;;;;;;;;;;;;;
2021/11/21 01:18:02;;;;;;;8.6;4.8;;;;;;;;;;;;;
2021/11/21 01:20:27;;;;;;;7.7;4.4;;;;;;;;;;;;;
2021/11/21 01:22:52;;;;;;;7.1;4;;;;;;;;;;;;;
2021/11/21 01:25:18;;;;;;;5.7;3.9;;;;;;;;;;;;;
2021/11/21 01:27:43;;;;;;;7;3.9;;;;;;;;;;;;;
2021/11/21 01:30:11;;;;;;;5.9;3.9;;;;;;;;;;;;;
2021/11/21 01:32:36;;;;;;;6.7;3.6;;;;;;;;;;;;;
2021/11/21 01:35:01;;;;;;;4.4;3.3;;;;;;;;;;;;;
2021/11/21 01:37:27;;;;;;;6.1;3.1;;;;;;;;;;;;;
2021/11/21 01:39:52;;;;;;;6.5;3.3;;;;;;;;;;;;;
2021/11/21 01:42:20;;;;;;;5.7;3.7;;;;;;;;;;;;;
2021/11/21 01:44:45;;;;;;;6.5;4;;;;;;;;;;;;;
2021/11/21 01:47:10;;;;;;;7.2;4.4;;;;;;;;;;;;;
2021/11/21 01:49:40;;;;;;;7.2;4.6;;;;;;;;;;;;;
2021/11/21 01:52:05;;;;;;;8.3;5;;;;;;;;;;;;;
2021/11/21 01:54:30;;;;;;;7.4;5.1;;;;;;;;;;;;;
2021/11/21 01:56:56;;;;;;;8.4;5.3;;;;;;;;;;;;;
2021/11/21 01:59:21;;;;;;;9;4.6;;;;;;;;;;;;;
2021/11/21 02:01:47;;;;;;;7;4.1;;;;;;;;;;;;;
2021/11/21 02:04:12;;;;;;;6.2;4;;;;;;;;;;;;;
2021/11/21 02:06:38;;;;;;;5.2;3.7;;;;;;;;;;;;;
2021/11/21 02:09:03;;;;;;;5.2;3.2;;;;;;;;;;;;;
2021/11/21 02:11:30;;;;;;;5;3;;;;;;;;;;;;;
2021/11/21 02:13:56;;;;;;;3.9;2.4;;;;;;;;;;;;;
2021/11/21 02:16:25;;;;;;;2.4;2;;;;;;;;;;;;;
2021/11/21 02:18:52;;;;;;;3.5;2.2;;;;;;;;;;;;;
2021/11/21 02:21:17;;;;;;;3.6;1.8;;;;;;;;;;;;;
2021/11/21 02:23:43;;;;;;;2.6;1.8;;;;;;;;;;;;;
2021/11/21 02:26:08;;;;;;;2.7;1.9;;;;;;;;;;;;;
2021/11/21 02:28:34;;;;;;;5.2;3.3;;;;;;;;;;;;;
2021/11/21 02:30:59;;;;;;;3.6;2.7;;;;;;;;;;;;;
2021/11/21 02:33:25;;;;;;;4.6;2.6;;;;;;;;;;;;;
2021/11/21 02:35:50;;;;;;;5.6;3.2;;;;;;;;;;;;;
2021/11/21 02:38:17;;;;;;;3.5;2.7;;;;;;;;;;;;;
2021/11/21 03:52:01;;;;;;;3.9;2.7;;;;;;;;;;;;;
2021/11/21 03:54:26;;;;;;;5.3;3.4;;;;;;;;;;;;;
2021/11/21 03:56:53;;;;;;;6.5;3.5;;;;;;;;;;;;;
2021/11/21 03:59:19;;;;;;;5.9;3;;;;;;;;;;;;;
2021/11/21 04:02:47;;;;;;;4.8;3.4;;;;;;;0.67;95.93848;934.6317;;;;
2021/11/21 04:05:15;;;;;;;6.1;3.6;;;;;;;0.77;95.28223;934.634;;;;
2021/11/21 04:07:41;;;;;;;6.2;3.6;;;;;;;0.77;94.93652;934.5363;;;;
2021/11/21 04:10:06;;;;;;;5.6;3.1;;;;;;;0.71;95.15723;934.519;;;;
2021/11/21 04:12:31;;;;;;;4.5;2.7;;;;;;;0.61;95.99316;934.5159;;;;
2021/11/21 04:14:59;;;;;;;4.7;2.5;;;;;;;0.62;96.29883;934.5295;;;;
2021/11/21 04:17:33;;;;;;;3.8;2.5;;;;;;;0.64;96.21387;934.4482;;;;
2021/11/21 04:20:03;;;;;;;4.5;3;;;;;;;0.63;95.72949;934.4578;;;;
2021/11/21 04:22:28;;;;;;;4.7;2.9;;;;;;;0.51;95.83691;934.4592;;;;
2021/11/21 04:24:59;;;;;;;4.1;2.4;;;;;;;0.56;95.72461;934.3498;;;;
2021/11/21 04:27:28;;;;;;;6.2;2.9;;;;;;;0.63;95.22754;934.3224;;;;
2021/11/21 04:29:52;;;;;;;4.5;2.7;;;;;;;0.55;95.86719;934.2592;;;;
2021/11/21 04:32:18;;;;;;;4.3;2.3;;;;;;;0.49;96.71191;934.2364;;;;
2021/11/21 04:34:48;;;;;;;5;2.8;;;;;;;0.39;96.67773;934.2281;;;;
2021/11/21 04:37:21;;;;;;;3.1;2.3;;;;;;;0.47;96.86621;934.1567;;;;
2021/11/21 04:39:52;;;;;;;5.2;2.4;;;;;;;0.51;96.60645;934.1694;;;;
2021/11/21 04:42:17;;;;;;;3.9;2.9;;;;;;;0.58;96.19727;934.0278;;;;
2021/11/21 04:44:44;;;;;;;3.5;2.7;;;;;;;0.66;95.13379;934.1339;;;;
2021/11/21 04:47:09;;;;;;;3.9;2.4;;;;;;;0.71;95.06738;934.1014;;;;
2021/11/21 04:49:37;;;;;;;4;2.2;;;;;;;0.81;94.62988;934.0569;;;;
2021/11/21 04:52:02;;;;;;;4.8;2.7;;;;;;;0.78;94.25781;934.0178;;;;
2021/11/21 04:54:30;;;;;;;3.9;2.5;;;;;;;0.81;93.88477;934.1253;;;;
2021/11/21 04:56:55;;;;;;;4.4;2.8;;;;;;;0.82;93.77734;934.0449;;;;
2021/11/21 04:59:22;;;;;;;6.1;3.1;;;;;;;0.82;94.3125;933.9988;;;;
2021/11/21 05:01:48;;;;;;;5.1;3.5;;;;;;;0.82;93.79688;934.0189;;;;
2021/11/21 05:04:13;;;;;;;5.4;3.7;;;;;;;0.84;93.42383;934.0378;;;;
2021/11/21 05:08:43;;;;;;;5.4;3.5;;;;;;;0.83;93.24316;934.0148;;;;
2021/11/21 05:11:07;;;;;;;5.5;3.5;;;;;;;0.56;95.30078;934.0725;;;;
2021/11/21 05:13:37;;;;;;;4.1;2.9;;;;;;;0.63;95.18359;934.0389;;;;
2021/11/21 05:17:00;;;;;;;5.2;3;;;;;;;0.65;94.74121;934.0511;;;;
2021/11/21 05:19:10;;;;;;;3.3;2.4;;;;;;;0.57;95.58398;934.0214;;;;
2021/11/21 05:21:42;;;;;;;2.6;2.3;;;;;;;0.49;95.90039;933.9963;;;;
2021/11/21 05:24:19;;;;;;;3.4;2.4;;;;;;;0.63;95.43945;934.0012;;;;
2021/11/21 05:26:46;;;;;;;3.9;2.4;;;;;;;0.67;95.04785;933.9753;;;;
2021/11/21 05:29:16;;;;;;;3;2.4;;;;;;;0.71;94.77734;933.9791;;;;
2021/11/21 05:31:41;;;;;;;3.4;2.5;;;;;;;0.71;94.65234;933.9767;;;;
2021/11/21 05:34:14;;;;;;;3.5;2.5;;;;;;;0.75;94.2627;933.9542;;;;
2021/11/21 05:36:38;;;;;;;4.5;2.8;;;;;;;0.76;93.67383;933.8472;;;;
2021/11/21 05:39:07;;;;;;;5.7;3.9;;;;;;;0.64;94.37305;933.8904;;;;
2021/11/21 05:42:01;;;;;;;4.7;3.3;;;;;;;0.59;94.67285;933.8989;;;;
2021/11/21 05:44:26;;;;;;;3.9;2.9;;;;;;;0.49;95.9668;933.8803;;;;
2021/11/21 05:56:41;;;;;;;2.3;2;;;;;;;0.53;95.46387;933.7441;;;;
2021/11/21 05:59:10;;;;;;;2;1.6;;;;;;;0.63;95.61816;933.6845;;;;
2021/11/21 06:01:48;;;;;;;2.5;1.7;;;;;;;0.64;96.08008;933.6852;;;;
2021/11/21 06:04:18;;;;;;;2;1.8;;;;;;;0.61;95.88184;933.6972;;;;
2021/11/21 06:06:49;;;;;;;3.7;2.2;;;;;;;0.6;95.86914;933.6878;;;;
2021/11/21 06:09:18;;;;;;;5.7;2.6;;;;;;;0.45;96.12402;933.6805;;;;
2021/11/21 06:11:43;;;;;;;5.8;4.2;;;;;;;0.36;96.71875;933.6595;;;;
2021/11/21 06:14:14;;;;;;;7.1;5.5;;;;;;;0.39;96.53516;933.7185;;;;
2021/11/21 06:16:44;;;;;;;7.9;5.4;;;;;;;0.35;96.72559;933.692;;;;
2021/11/21 06:19:18;;;;;;;6.8;4.7;;;;;;;0.31;97.27441;933.6996;;;;
2021/11/21 06:21:43;;;;;;;6.6;5.1;;;;;;;0.31;97.0625;933.6855;;;;
2021/11/21 06:24:11;;;;;;;6.6;4.4;;;;;;;0.29;97.69434;933.6417;;;;
2021/11/21 06:26:36;;;;;;;6.1;4.1;;;;;;;0.33;97.87891;933.6259;;;;
2021/11/21 06:29:06;;;;;;;5.1;3.9;;;;;;;0.35;97.89648;933.6722;;;;
2021/11/21 06:31:33;;;;;;;9;5.1;;;;;;;0.38;97.76855;933.6414;;;;
2021/11/21 06:34:03;;;;;;;9.5;5.8;;;;;;;0.4;97.32715;933.6334;;;;
2021/11/21 06:36:29;;;;;;;10.1;6.2;;;;;;;0.35;97.37207;933.5386;;;;
2021/11/21 06:38:57;;;;;;;8.6;5.7;;;;;;;0.45;97.40625;933.5747;;;;
2021/11/21 06:41:26;;;;;;;6;4;;;;;;;0.6;96.92871;933.5733;;;;
2021/11/21 06:43:53;;;;;;;5.9;3.8;;;;;;;0.79;96.0791;933.5497;;;;
2021/11/21 06:46:22;;;;;;;6.9;4;;;;;;;0.94;94.88379;933.551;;;;
2021/11/21 06:57:55;;;;;;;8.5;5.9;;;;;;;0.9;93.4248;933.5226;;;;
2021/11/21 07:00:07;;;;;;;11.1;7.1;;;;;;;0.89;93.17676;933.4975;;;;
2021/11/21 07:02:33;;;;;;;9;7;;;;;;;0.87;93.24902;933.5184;;;;
2021/11/21 07:04:58;;;;;;;7.1;4.7;;;;;;;0.98;94.17969;933.5119;;;;
2021/11/21 07:07:26;;;;;;;6.5;4.1;;;;;;;1.03;93.34277;933.5147;;;;
2021/11/21 07:09:51;;;;;;;5.7;3;;;;;;;0.97;93.0498;933.5206;;;;
2021/11/21 07:12:19;;;;;;;4.4;3.3;;;;;;;1.02;93.47461;933.4736;;;;
2021/11/21 07:14:44;;;;;;;4.2;3.3;;;;;;;1.4;92.72949;933.4551;;;;
2021/11/21 07:17:10;;;;;;;4;2.7;;;;;;;1.86;90.51465;933.4131;;;;
2021/11/21 07:19:39;;;;;;;4;3.1;;;;;;;2.43;87.47852;933.4533;;;;
2021/11/21 07:22:04;;;;;;;4.4;2.4;;;;;;;2.76;85.72949;933.4252;;;;
2021/11/21 07:24:33;;;;;;;4.4;2.9;;;;;;;3.16;83.8584;933.2969;;;;
2021/11/21 07:26:59;;;;;;;21;9.6;;;;;;;3.47;82.35742;933.399;;;;
2021/11/21 07:29:29;;;;;;;22;13.2;;;;;;;3.72;84.03613;933.3148;;;;
2021/11/21 07:31:52;;;;;;;19.2;12.9;;;;;;;4.1;80.13867;933.3425;;;;
2021/11/21 07:34:17;;;;;;;12.9;9.6;;;;;;;4.35;78.23828;933.3144;;;;
2021/11/21 07:36:43;;;;;;;10.8;8.2;;;;;;;4.57;77.8418;933.2947;;;;
2021/11/21 07:39:08;;;;;;;12.5;8.4;;;;;;;4.83;76.08691;933.2525;;;;
2021/11/21 07:41:35;;;;;;;12.1;8;;;;;;;4.99;74.96484;933.2789;;;;
2021/11/21 07:45:34;;;;;;;9;6.4;;;;;;;5.36;73.67578;933.2281;;;;
2021/11/21 07:46:42;;;;;;;4;3.2;;;;;;;5.68;71.90332;933.1016;;;;
2021/11/21 07:49:07;;;;;;;3.7;2.9;;;;;;;5.82;71.66602;933.0817;;;;
2021/11/21 07:51:35;;;;;;;3.4;3;;;;;;;6.08;71.44824;933.1319;;;;
2021/11/21 07:54:00;;;;;;;3.5;2.9;;;;;;;6.4;69.28809;933.1725;;;;
2021/11/21 07:56:27;;;;;;;5.2;3.3;;;;;;;6.21;70.67871;933.0974;;;;
2021/11/21 07:58:53;;;;;;;4.8;3.7;;;;;;;6.67;68.86719;933.0818;;;;
2021/11/21 08:01:22;;;;;;;6.5;4.2;;;;;;;6.68;68.87891;933.0684;;;;
2021/11/21 08:03:48;;;;;;;6.3;5;;;;;;;6.54;69.10449;932.9631;;;;
2021/11/21 08:06:17;;;;;;;15.9;7.6;;;;;;;6.96;67.22656;933.0009;;;;
2021/11/21 08:08:48;;;;;;;9.9;5.3;;;;;;;7.05;66.59375;932.9835;;;;
2021/11/21 08:11:13;;;;;;;5.6;3.2;;;;;;;7.32;65.44629;932.9763;;;;
2021/11/21 08:13:42;;;;;;;6;4.1;;;;;;;8.02;63.81543;932.972;;;;
2021/11/21 08:16:15;;;;;;;3.6;2.6;;;;;;;8.29;62.23242;932.9004;;;;
2021/11/21 08:18:40;;;;;;;3.4;2.7;;;;;;;8.57;61.56836;932.87;;;;
2021/11/21 08:21:11;;;;;;;3;2.3;;;;;;;8.31;61.83887;932.8625;;;;
2021/11/21 08:23:39;;;;;;;12.1;8.4;;;;;;;7.71;64.04199;932.9324;;;;
2021/11/21 08:26:04;;;;;;;5.6;3.7;;;;;;;7.61;64.68457;932.9186;;;;
2021/11/21 08:28:38;;;;;;;4.3;3.5;;;;;;;7.38;65.38672;932.9224;;;;
2021/11/21 08:31:00;;;;;;;3.6;3.1;;;;;;;6.8;66.96191;932.9144;;;;
2021/11/21 08:33:30;;;;;;;3.1;2.5;;;;;;;6.98;67.01465;932.8413;;;;
2021/11/21 08:36:04;;;;;;;4.8;3.3;;;;;;;7.05;67.58887;932.8345;;;;
2021/11/21 08:38:31;;;;;;;4.6;3.2;;;;;;;6.33;69.52344;932.8329;;;;
2021/11/21 08:40:56;;;;;;;3.8;3;;;;;;;6.04;70.63086;932.7623;;;;
2021/11/21 08:43:23;;;;;;;4.9;3.7;;;;;;;5.3;75.04297;932.8197;;;;
2021/11/21 08:45:48;;;;;;;4.9;3.5;;;;;;;5.19;76.46582;932.8304;;;;
2021/11/21 08:48:15;;;;;;;4.1;3.1;;;;;;;4.95;78.35059;932.7913;;;;
2021/11/21 08:50:40;;;;;;;5.4;3.3;;;;;;;5.12;78.05371;932.717;;;;
2021/11/21 08:53:05;;;;;;;6.3;3.7;;;;;;;4.98;77.93848;932.6995;;;;
2021/11/21 08:55:33;;;;;;;5.6;4.2;;;;;;;5.12;78.60742;932.6682;;;;
2021/11/21 08:57:58;;;;;;;4.1;3.3;;;;;;;5.2;77.76367;932.5616;;;;
2021/11/21 09:00:25;;;;;;;3.3;2.8;;;;;;;5.27;77.39355;932.6367;;;;
2021/11/21 09:02:50;;;;;;;4.8;2.5;;;;;;;5.18;77.875;932.5928;;;;
2021/11/21 09:05:20;;;;;;;3.4;2.7;;;;;;;5.23;77.97363;932.5334;;;;
2021/11/21 09:07:48;;;;;;;7.3;3.5;;;;;;;5.34;77.66406;932.5078;;;;
2021/11/21 09:10:17;;;;;;;4.4;2.9;;;;;;;5.41;77.3291;932.5087;;;;
2021/11/21 09:12:48;;;;;;;8.5;4.3;;;;;;;5.49;76.94727;932.4755;;;;
2021/11/21 09:15:16;;;;;;;6.1;3.4;;;;;;;5.58;76.55762;932.47;;;;
2021/11/21 09:17:54;;;;;;;7.6;4.2;;;;;;;5.68;75.7168;932.4017;;;;
2021/11/21 09:20:23;;;;;;;10.1;5.4;;;;;;;5.81;75.40234;932.4052;;;;
2021/11/21 09:22:52;;;;;;;8.3;5;;;;;;;6.01;75.29102;932.3816;;;;
2021/11/21 09:26:26;;;;;;;9.6;5.4;;;;;;;6.11;75.10449;932.3699;;;;
2021/11/21 09:27:48;;;;;;;9;5.1;;;;;;;6.24;74.69922;932.3469;;;;
2021/11/21 09:30:19;;;;;;;5.6;3;;;;;;;6.29;70.87598;932.2395;;;;
2021/11/21 09:33:02;;;;;;;4.2;2.8;;;;;;;6.37;70.52539;932.2802;;;;
2021/11/21 09:35:38;;;;;;;5;2.8;;;;;;;6.34;70.64551;932.1825;;;;
2021/11/21 09:38:03;;;;;;;5;2.5;;;;;;;6.51;71.01172;932.1552;;;;
2021/11/21 09:40:31;;;;;;;5.3;3.1;;;;;;;6.58;70.79785;932.1387;;;;
2021/11/21 09:42:56;;;;;;;5.2;2.8;;;;;;;6.66;70.57324;932.153;;;;
2021/11/21 09:45:24;;;;;;;3.1;2.2;;;;;;;6.66;68.66113;932.084;;;;
2021/11/21 09:47:49;;;;;;;3.5;2.3;;;;;;;6.82;69.10547;932.0668;;;;
2021/11/21 09:50:20;;;;;;;2.9;1.9;;;;;;;6.92;67.95605;931.9636;;;;
2021/11/21 09:52:48;;;;;;;3.5;1.8;;;;;;;6.99;67.53711;931.8538;;;;
2021/11/21 09:55:13;;;;;;;3.8;2.3;;;;;;;7.1;67.55371;931.8395;;;;
2021/11/21 09:57:40;;;;;;;5.7;2.9;;;;;;;7.31;66.63477;931.7986;;;;
2021/11/21 10:00:05;;;;;;;3.2;1.5;;;;;;;7.49;65.55176;931.7667;;;;
2021/11/21 10:02:32;;;;;;;1.4;1.2;;;;;;;7.71;64.18945;931.6266;;;;
2021/11/21 10:05:01;;;;;;;2.2;1.3;;;;;;;7.87;65.99707;931.6584;;;;
2021/11/21 10:07:27;;;;;;;2.3;1.5;;;;;;;7.94;65.1084;931.6091;;;;
2021/11/21 10:09:55;;;;;;;2.5;1.2;;;;;;;8.03;63.95313;931.5981;;;;
2021/11/21 10:12:20;;;;;;;1.3;1;;;;;;;8.08;63.75684;931.5233;;;;
2021/11/21 10:14:46;;;;;;;2.1;1.2;;;;;;;8.2;63.60352;931.4774;;;;
2021/11/21 10:17:16;;;;;;;1.5;1.1;;;;;;;8.36;62.91211;931.4623;;;;
2021/11/21 10:19:46;;;;;;;1.3;1.2;;;;;;;8.5;62.63672;931.385;;;;
2021/11/21 10:22:15;;;;;;;3.9;1.4;;;;;;;8.65;61.44238;931.3203;;;;
2021/11/21 10:24:40;;;;;;;1.9;1.2;;;;;;;8.72;61.30664;931.3643;;;;
2021/11/21 10:27:05;;;;;;;2.3;1.5;;;;;;;8.83;61.22949;931.3278;;;;
2021/11/21 10:29:30;;;;;;;1.3;1.2;;;;;;;8.94;59.0957;931.3131;;;;
2021/11/21 10:31:55;;;;;;;2;1.3;;;;;;;9.1;57.78613;931.2648;;;;
2021/11/21 10:34:21;;;;;;;3.6;2.1;;;;;;;9.14;58.2002;931.2419;;;;
2021/11/21 10:36:47;;;;;;;3.6;1.9;;;;;;;9.19;59.02734;931.2271;;;;
2021/11/21 10:39:14;;;;;;;2;1.4;;;;;;;9.17;56.31543;931.1848;;;;
2021/11/21 10:41:40;;;;;;;5;2.4;;;;;;;9.33;55.67676;931.1895;;;;
2021/11/21 10:44:05;;;;;;;4.8;2.4;;;;;;;9.36;57.12598;931.1594;;;;
2021/11/21 10:46:31;;;;;;;3.9;2.5;;;;;;;9.44;58.74316;931.1186;;;;
2021/11/21 10:48:56;;;;;;;4.8;2.5;;;;;;;9.48;61.83594;931.0884;;;;
2021/11/21 10:51:24;;;;;;;2.7;1.8;;;;;;;9.54;64.88477;931.0734;;;;
2021/11/21 10:53:50;;;;;;;3.9;2.4;;;;;;;9.69;63.83594;931.0342;;;;
2021/11/21 10:56:14;;;;;;;3.3;2.3;;;;;;;9.71;64.67188;930.9984;;;;
2021/11/21 10:58:41;;;;;;;3.6;2.3;;;;;;;9.82;63.95801;930.9359;;;;
2021/11/21 11:01:07;;;;;;;3.4;2.3;;;;;;;9.82;63.17188;930.8947;;;;
2021/11/21 11:03:32;;;;;;;2.1;1.8;;;;;;;9.9;61.51855;930.8636;;;;
2021/11/21 11:06:03;;;;;;;2.6;1.6;;;;;;;10.03;61.87891;930.8201;;;;
2021/11/21 11:08:25;;;;;;;2.2;1.7;;;;;;;10.04;61.05957;930.805;;;;
2021/11/21 11:10:52;;;;;;;2.3;1.8;;;;;;;10.1;60.96582;930.793;;;;
2021/11/21 11:13:23;;;;;;;2.9;2;;;;;;;10.15;59.78711;930.7706;;;;
2021/11/21 11:16:04;;;;;;;2.5;1.7;;;;;;;10.21;59.58887;930.6746;;;;
2021/11/21 11:18:31;;;;;;;2.5;1.8;;;;;;;10.37;60.0332;930.6769;;;;
2021/11/21 11:20:57;;;;;;;1.8;1.2;;;;;;;10.5;58.80762;930.6483;;;;
2021/11/21 11:23:27;;;;;;;1.9;1.3;;;;;;;10.65;57.8457;930.5995;;;;
2021/11/21 11:25:52;;;;;;;2.2;1.4;;;;;;;10.75;57.10449;930.5864;;;;
2021/11/21 11:28:24;;;;;;;2.2;1.3;;;;;;;10.72;56.68848;930.4871;;;;
2021/11/21 11:30:47;;;;;;;1.3;1.1;;;;;;;11.26;53.44336;930.4478;;;;
2021/11/21 11:33:17;;;;;;;1.3;1;;;;;;;12.04;50.93945;930.4235;;;;
2021/11/21 11:35:43;;;;;;;1.5;0.9;;;;;;;12.74;47.94629;930.3741;;;;
2021/11/21 11:38:09;;;;;;;1.2;1;;;;;;;13.25;46.14063;930.4599;;;;
2021/11/21 11:40:34;;;;;;;0.8;0.8;;;;;;;14.35;44.20605;930.4194;;;;
2021/11/21 11:43:03;;;;;;;0.6;0.6;;;;;;;15.51;41.67969;930.4039;;;;
2021/11/21 11:45:34;;;;;;;1.3;0.9;;;;;;;16.25;40.02637;930.3157;;;;
2021/11/21 11:47:59;;;;;;;1.3;1;;;;;;;16.22;39.04004;930.3293;;;;
2021/11/21 11:50:25;;;;;;;1;0.9;;;;;;;15.83;41.15625;930.2988;;;;
2021/11/21 11:52:50;;;;;;;0.9;0.8;;;;;;;16.06;39.79004;930.2406;;;;
2021/11/21 11:55:21;;;;;;;0.9;0.9;;;;;;;17.26;37.19727;930.2104;;;;
2021/11/21 11:57:47;;;;;;;0.9;0.7;;;;;;;17.25;37.03418;930.1882;;;;
2021/11/21 12:00:15;;;;;;;0.7;0.7;;;;;;;17.73;35.83301;930.1802;;;;
2021/11/21 12:02:41;;;;;;;1.9;1.1;;;;;;;18.99;33.31641;930.1077;;;;
2021/11/21 12:05:11;;;;;;;0.7;0.6;;;;;;;19.4;32.36816;930.0999;;;;
2021/11/21 12:07:37;;;;;;;3.3;0.6;;;;;;;18.87;32.52637;930.0927;;;;
2021/11/21 12:10:09;;;;;;;1.2;0.8;;;;;;;20.2;31.02637;930.0602;;;;
2021/11/21 12:12:35;;;;;;;0.6;0.5;;;;;;;20.4;30.71289;930.0234;;;;
2021/11/21 12:15:00;;;;;;;0.6;0.6;;;;;;;22.14;28.79395;930.0338;;;;
2021/11/21 12:17:42;;;;;;;1;0.6;;;;;;;23.46;27.29199;929.891;;;;
2021/11/21 12:20:10;;;;;;;0.6;0.5;;;;;;;23.97;26.47656;929.9546;;;;
2021/11/21 12:23:34;;;;;;;0.9;0.7;;;;;;;24.7;25.30469;929.8039;;;;
2021/11/21 12:25:59;;;;;;;0.5;0.5;;;;;;;24.01;25.61816;929.8137;;;;
2021/11/21 12:28:24;;;;;;;0.8;0.8;;;;;;;24.78;25.02637;929.8239;;;;
2021/11/21 12:30:51;;;;;;;0.9;0.5;;;;;;;24.91;25.32813;929.8059;;;;
2021/11/21 12:33:19;;;;;;;0.5;0.5;;;;;;;25.26;24.96973;929.8535;;;;
2021/11/21 12:35:50;;;;;;;0.7;0.5;;;;;;;23.01;26.9707;929.8042;;;;
2021/11/21 12:38:21;;;;;;;0.7;0.6;;;;;;;23.54;26.10938;929.7849;;;;
2021/11/21 12:40:53;;;;;;;0.7;0.7;;;;;;;24.07;26.01074;929.7722;;;;
2021/11/21 12:43:21;;;;;;;1.8;0.9;;;;;;;23.24;27.56152;929.7081;;;;
2021/11/21 12:45:46;;;;;;;1.1;0.8;;;;;;;23.09;27.375;929.7614;;;;
2021/11/21 12:48:13;;;;;;;1.6;0.8;;;;;;;24.18;26.61719;929.6044;;;;
2021/11/21 12:50:38;;;;;;;2.3;0.9;;;;;;;24.31;26.73145;929.604;;;;
2021/11/21 12:53:05;;;;;;;1.5;0.9;;;;;;;23.98;27.08789;929.6118;;;;
2021/11/21 12:55:30;;;;;;;0.7;0.7;;;;;;;22.85;28.44141;929.5963;;;;
2021/11/21 12:57:58;;;;;;;1.3;1;;;;;;;22.42;29.60938;929.5514;;;;
2021/11/21 13:00:22;;;;;;;2.6;1.3;;;;;;;20.81;32.17969;929.5891;;;;
2021/11/21 13:02:52;;;;;;;1.9;1.1;;;;;;;20.91;32.71289;929.5543;;;;
2021/11/21 13:05:18;;;;;;;1.4;0.9;;;;;;;22.36;30.75586;929.4741;;;;
2021/11/21 13:07:44;;;;;;;1.2;1;;;;;;;22.84;29.66113;929.4817;;;;
2021/11/21 13:10:09;;;;;;;1.7;1;;;;;;;21.97;30.52832;929.4804;;;;
2021/11/21 13:12:36;;;;;;;1.6;1;;;;;;;21.94;31.42969;929.4073;;;;
2021/11/21 13:15:03;;;;;;;1.2;0.9;;;;;;;21.84;30.84766;929.3274;;;;
2021/11/21 13:17:35;;;;;;;1.7;0.9;;;;;;;21.12;32.22559;929.3857;;;;
2021/11/21 13:20:04;;;;;;;1.5;0.7;;;;;;;20.34;33.30078;929.3756;;;;
2021/11/21 13:22:31;;;;;;;1.4;0.9;;;;;;;20.54;33.49219;929.3942;;;;
2021/11/21 13:24:56;;;;;;;1.6;0.9;;;;;;;20.49;33.30078;929.3777;;;;
2021/11/21 13:27:21;;;;;;;1.9;1;;;;;;;21.95;31.57031;929.4147;;;;
2021/11/21 13:29:47;;;;;;;1.4;1;;;;;;;21.24;32.86621;929.4115;;;;
2021/11/21 13:32:12;;;;;;;1.8;1.1;;;;;;;22.54;30.85059;929.3427;;;;
2021/11/21 13:34:40;;;;;;;0.9;0.9;;;;;;;22.15;30.9873;929.308;;;;
2021/11/21 13:37:13;;;;;;;2.6;1.1;;;;;;;21.84;31.64453;929.3194;;;;
2021/11/21 13:39:36;;;;;;;1.4;0.9;;;;;;;22.68;30.67188;929.2525;;;;
2021/11/21 13:42:03;;;;;;;1.1;1;;;;;;;22.67;30.68262;929.2892;;;;
2021/11/21 13:44:28;;;;;;;2.2;1.2;;;;;;;21.85;31.15332;929.2455;;;;
2021/11/21 13:46:55;;;;;;;1.2;1;;;;;;;22.9;30.55762;929.2009;;;;
2021/11/21 13:49:20;;;;;;;1.3;1.2;;;;;;;22.7;30.6377;929.2905;;;;
2021/11/21 13:51:49;;;;;;;1.2;1.1;;;;;;;23.58;29.00391;929.2606;;;;
2021/11/21 13:54:18;;;;;;;2.3;1.5;;;;;;;22.01;31.46973;929.245;;;;
2021/11/21 13:56:43;;;;;;;2;1.2;;;;;;;23.75;29.28711;929.2668;;;;
2021/11/21 13:59:09;;;;;;;1.7;1.1;;;;;;;21.78;31.91016;929.2502;;;;
2021/11/21 14:01:41;;;;;;;1.2;1.1;;;;;;;22.68;30.47266;929.2636;;;;
2021/11/21 14:04:10;;;;;;;1;0.9;;;;;;;24.11;28.4502;929.2366;;;;
2021/11/21 14:06:35;;;;;;;1.8;1.1;;;;;;;24.3;28.33301;929.2879;;;;
2021/11/21 14:09:02;;;;;;;1.7;1.3;;;;;;;24.86;27.56641;929.3033;;;;
2021/11/21 14:11:31;;;;;;;1.2;1.1;;;;;;;24.45;28.08301;929.2852;;;;
2021/11/21 14:14:00;;;;;;;1.1;1;;;;;;;23.51;29.09473;929.3376;;;;
2021/11/21 14:16:35;;;;;;;1;0.9;;;;;;;24.06;28.71777;929.3312;;;;
2021/11/21 14:19:06;;;;;;;0.8;0.8;;;;;;;23.65;29.18652;929.3002;;;;
2021/11/21 14:21:37;;;;;;;1.8;1.2;;;;;;;22.12;31.48926;929.298;;;;
2021/11/21 14:24:06;;;;;;;1.4;1.1;;;;;;;21.97;32.20508;929.3197;;;;
2021/11/21 14:26:40;;;;;;;1.8;1.2;;;;;;;21.58;33.33594;929.3516;;;;
2021/11/21 14:29:03;;;;;;;1.9;1.4;;;;;;;22.04;32.65527;929.3751;;;;
2021/11/21 14:31:28;;;;;;;1.7;1.3;;;;;;;21.35;33.75195;929.3994;;;;
2021/11/21 14:33:58;;;;;;;2.1;1.6;;;;;;;20.07;36.11621;929.348;;;;
2021/11/21 14:36:25;;;;;;;2.5;1.4;;;;;;;18.94;38.18945;929.4157;;;;
2021/11/21 14:38:48;;;;;;;2;1.7;;;;;;;17.12;42.61035;929.4129;;;;
2021/11/21 14:41:13;;;;;;;2.8;2.2;;;;;;;16.03;45.55664;929.3483;;;;
2021/11/21 14:43:41;;;;;;;3.1;2.4;;;;;;;14.86;49.04395;929.4403;;;;
2021/11/21 14:46:05;;;;;;;4.9;2.4;;;;;;;13.29;54.34863;929.4872;;;;
2021/11/21 14:48:34;;;;;;;3;2.1;;;;;;;12.6;57.24512;929.5248;;;;
2021/11/21 14:50:59;;;;;;;3.7;2.5;;;;;;;12.77;56.77539;929.5812;;;;
2021/11/21 14:53:28;;;;;;;5;2.7;;;;;;;12.51;57.875;929.5675;;;;
2021/11/21 14:55:57;;;;;;;3.4;2.8;;;;;;;12.16;59.44531;929.5932;;;;
2021/11/21 14:58:21;;;;;;;3.4;2.5;;;;;;;11.78;61.04199;929.6459;;;;
2021/11/21 15:00:42;;;;;;;4.1;2.8;;;;;;;11.5;62.37598;929.6414;;;;
2021/11/21 15:03:08;;;;;;;4;2.7;;;;;;;11.4;62.89941;929.6618;;;;
2021/11/21 15:05:33;;;;;;;4.9;2.9;;;;;;;11;64.84082;929.7748;;;;
2021/11/21 15:08:01;;;;;;;4;2.7;;;;;;;10.87;65.3584;929.7484;;;;
2021/11/21 15:10:26;;;;;;;5.4;3.5;;;;;;;10.84;65.62891;929.794;;;;
2021/11/21 15:12:56;;;;;;;3.7;3.2;;;;;;;10.62;66.55371;929.7558;;;;
2021/11/21 15:15:27;;;;;;;8.5;5;;;;;;;10.5;66.93652;929.8428;;;;
2021/11/21 15:17:52;;;;;;;6.2;4.5;;;;;;;10.3;67.7373;929.8091;;;;
2021/11/21 15:20:24;;;;;;;5.2;3.7;;;;;;;10.22;68.0459;929.8348;;;;
2021/11/21 15:22:51;;;;;;;4.8;3.9;;;;;;;10.11;68.46094;929.9221;;;;
2021/11/21 15:25:17;;;;;;;4.9;3.6;;;;;;;10.01;68.87695;929.9529;;;;
2021/11/21 15:27:48;;;;;;;4.8;3.6;;;;;;;9.98;68.97656;929.9283;;;;
2021/11/21 15:30:24;;;;;;;5.2;3.8;;;;;;;9.9;69.12207;929.9293;;;;
2021/11/21 15:32:50;;;;;;;5.1;3.8;;;;;;;9.8;69.55176;929.9141;;;;
2021/11/21 15:35:21;;;;;;;4.3;3.6;;;;;;;9.65;70.3252;930.0406;;;;
2021/11/21 15:37:52;;;;;;;5.1;3.9;;;;;;;9.4;71.53809;930.0503;;;;
2021/11/21 15:40:23;;;;;;;7;4.2;;;;;;;9.14;73.10938;930.0586;;;;
2021/11/21 15:42:48;;;;;;;5.8;4.4;;;;;;;9.08;73.47559;930.095;;;;
2021/11/21 15:45:15;;;;;;;8.2;5.4;;;;;;;9.01;73.87207;930.0843;;;;
2021/11/21 15:47:42;;;;;;;8.5;5.1;;;;;;;8.82;75.00195;930.0942;;;;
2021/11/21 15:50:07;;;;;;;7.6;4.9;;;;;;;8.67;75.73633;930.1895;;;;
2021/11/21 15:52:35;;;;;;;6.9;4.7;;;;;;;8.59;76.25684;930.1866;;;;
2021/11/21 15:55:00;;;;;;;5.4;4.4;;;;;;;8.38;77.41113;930.2172;;;;
2021/11/21 15:57:26;;;;;;;7.8;5.6;;;;;;;8.33;77.7207;930.1881;;;;
2021/11/21 16:00:24;;;;;;;5;4.4;;;;;;;8.41;77.41699;930.2355;;;;
2021/11/21 16:02:54;;;;;;;7.7;5.5;;;;;;;8.36;77.64648;930.2408;;;;
2021/11/21 16:05:19;;;;;;;8.1;4.9;;;;;;;8.33;77.9707;930.2595;;;;
2021/11/21 16:07:47;;;;;;;7.9;5.7;;;;;;;8.42;77.47559;930.2612;;;;
2021/11/21 16:10:15;;;;;;;5.8;4.8;;;;;;;8.46;77.48438;930.3051;;;;
2021/11/21 16:12:40;;;;;;;8.9;5.5;;;;;;;8.42;77.58984;930.2208;;;;
2021/11/21 16:15:05;;;;;;;6.1;5.1;;;;;;;8.29;78.04395;930.1783;;;;
2021/11/21 16:17:30;;;;;;;6.1;5;;;;;;;8.28;78.17676;930.2053;;;;
2021/11/21 16:19:59;;;;;;;6.5;4.9;;;;;;;8.18;78.69238;930.2569;;;;
2021/11/21 16:22:24;;;;;;;7.5;5.4;;;;;;;8.11;78.9873;930.3223;;;;
2021/11/21 16:24:53;;;;;;;7.1;5.5;;;;;;;8.2;78.76367;930.3038;;;;
2021/11/21 16:27:20;;;;;;;8.1;6.1;;;;;;;8.19;78.73926;930.36;;;;
2021/11/21 16:29:50;;;;;;;8.6;5.6;;;;;;;8.18;78.62598;930.3933;;;;
2021/11/21 16:32:15;;;;;;;8;4.9;;;;;;;8.19;78.60352;930.3711;;;;
2021/11/21 16:34:47;;;;;;;7;5.6;;;;;;;8.12;78.97754;930.4437;;;;
2021/11/21 16:37:16;;;;;;;7.2;5.2;;;;;;;8.16;78.90527;930.3312;;;;
2021/11/21 16:39:44;;;;;;;7.1;5.7;;;;;;;8.13;78.93359;930.4763;;;;
2021/11/21 16:42:09;;;;;;;6.5;5.3;;;;;;;8.11;79.13477;930.5522;;;;
2021/11/21 16:44:37;;;;;;;7.2;5.7;;;;;;;8.18;78.69238;930.4963;;;;
2021/11/21 16:47:02;;;;;;;9.4;6.7;;;;;;;8.17;78.21387;930.5628;;;;
2021/11/21 16:49:31;;;;;;;7.2;5.6;;;;;;;8;79.11328;930.6503;;;;
2021/11/21 16:51:55;;;;;;;8.3;6;;;;;;;7.93;79.80566;930.6174;;;;
2021/11/21 16:54:24;;;;;;;9.1;6.2;;;;;;;7.8;80.33789;930.6764;;;;
2021/11/21 16:56:49;;;;;;;8.3;6.1;;;;;;;7.86;80.22363;930.6597;;;;
2021/11/21 16:59:15;;;;;;;10.1;7.5;;;;;;;7.83;79.91211;930.6064;;;;
2021/11/21 17:01:42;;;;;;;10.9;6.7;;;;;;;7.73;80.86914;930.622;;;;